Georgia Queen — WDI7184 — position and weather

sailwx.info

Track history (hours):
 
Tides and Currents Weather Stations Pressure Air Temp Water Temp Dewpoint Dewpoint Depression Visibility Wind Speed Wind Dir Waves Ship Positions

Georgia Queen

Owner: River Street Riverboat, Savannah, GA. More information available from US FCC via Universal Licensing System and Coast Guard Vessel Documentation Center.

Last reported at 2018-Jan-21 19:55 UTC. Time now 2018-Jan-21 20:30 UTC.
Position N 32°05' W 081°05'.

Length 53 m; draft 2.7 m.

Type: Passenger vessel. MMSI: 367726210.

Date/timePositionNaut miles runAvg speedWind from/ knotsBaromVisibWave heightAir tempDewpointWater temp
2018-Jan-21 19:55N 32°05' W 081°05'0 1.2
2018-Jan-21 19:30N 32°05' W 081°05'2 4.7
2018-Jan-21 19:00N 32°05' W 081°02'3 6.6
2018-Jan-21 18:30N 32°05' W 081°06'1 1.1
2018-Jan-21 17:52N 32°05' W 081°05'0 0.0
2018-Jan-21 17:28N 32°05' W 081°05'0 0.0
2018-Jan-21 16:58N 32°05' W 081°05'0 0.0
2018-Jan-21 16:28N 32°05' W 081°05'0 0.0
2018-Jan-21 15:58N 32°05' W 081°05'0 0.0
2018-Jan-21 15:28N 32°05' W 081°05'0 0.0
2018-Jan-21 14:58N 32°05' W 081°05'0 0.0
2018-Jan-21 14:28N 32°05' W 081°05'0 0.0
2018-Jan-21 13:58N 32°05' W 081°05'0 0.0
2018-Jan-21 13:28N 32°05' W 081°05'0 0.0
2018-Jan-21 12:58N 32°05' W 081°05'0 0.0
2018-Jan-21 12:28N 32°05' W 081°05'0 0.0
2018-Jan-21 11:40N 32°05' W 081°05'0 0.0
2018-Jan-21 11:28N 32°05' W 081°05'0 0.0
2018-Jan-21 10:58N 32°05' W 081°05'0 0.0
2018-Jan-21 10:28N 32°05' W 081°05'0 0.0
2018-Jan-21 09:58N 32°05' W 081°05'0 0.0
2018-Jan-21 09:28N 32°05' W 081°05'0 0.0
2018-Jan-21 08:58N 32°05' W 081°05'0 0.0
2018-Jan-21 08:28N 32°05' W 081°05'0 0.0
2018-Jan-21 07:58N 32°05' W 081°05'0 0.0
2018-Jan-21 07:28N 32°05' W 081°05'0 0.0
2018-Jan-21 06:58N 32°05' W 081°05'0 0.0
2018-Jan-21 06:28N 32°05' W 081°05'0 0.0
2018-Jan-21 05:58N 32°05' W 081°05'0 0.0
2018-Jan-21 05:28N 32°05' W 081°05'0 0.0
2018-Jan-21 04:58N 32°05' W 081°05'0 0.0
2018-Jan-21 04:28N 32°05' W 081°05'0 0.0
2018-Jan-21 03:58N 32°05' W 081°05'0 0.0
2018-Jan-21 03:22N 32°05' W 081°05'0 0.0
2018-Jan-21 02:58N 32°05' W 081°05'0 0.0
2018-Jan-21 02:28N 32°05' W 081°05'0 0.0
2018-Jan-21 02:00N 32°05' W 081°05'2 4.4
2018-Jan-21 01:30N 32°05' W 081°03'1 2.1
2018-Jan-21 01:00N 32°05' W 081°04'2 3.9
2018-Jan-21 00:29N 32°06' W 081°06'1 1.9
2018-Jan-20 23:59N 32°05' W 081°05'0 0.0
2018-Jan-20 23:29N 32°05' W 081°05'0 0.0
2018-Jan-20 22:59N 32°05' W 081°05'0 0.0
2018-Jan-20 22:29N 32°05' W 081°05'0 0.0
2018-Jan-20 21:53N 32°05' W 081°05'0 0.0
2018-Jan-20 21:29N 32°05' W 081°05'0 0.0
2018-Jan-20 20:59N 32°05' W 081°05'0 0.0
2018-Jan-20 20:29N 32°05' W 081°05'0 0.1
2018-Jan-20 18:31N 32°05' W 081°05'0 5.6
2018-Jan-20 18:30N 32°05' W 081°05'0 0.4
2018-Jan-20 18:00N 32°05' W 081°05'0 0.0
2018-Jan-20 17:29N 32°05' W 081°05'0 0.0
2018-Jan-20 16:59N 32°05' W 081°05'0 0.0
2018-Jan-20 16:29N 32°05' W 081°05'0 0.0
2018-Jan-20 15:59N 32°05' W 081°05'0 0.0
2018-Jan-20 15:29N 32°05' W 081°05'0 0.0
2018-Jan-20 14:59N 32°05' W 081°05'0 0.0
2018-Jan-20 14:29N 32°05' W 081°05'0 0.0
2018-Jan-20 13:59N 32°05' W 081°05'0 0.0
2018-Jan-20 13:29N 32°05' W 081°05'0 0.0
2018-Jan-20 12:59N 32°05' W 081°05'0 0.0
2018-Jan-20 12:29N 32°05' W 081°05'0 0.0
2018-Jan-20 11:59N 32°05' W 081°05'0 0.0
2018-Jan-20 11:29N 32°05' W 081°05'0 0.0
2018-Jan-20 10:59N 32°05' W 081°05'0 0.0
2018-Jan-20 10:29N 32°05' W 081°05'0 0.0
2018-Jan-20 09:59N 32°05' W 081°05'0 0.0
2018-Jan-20 09:29N 32°05' W 081°05'0 0.0
2018-Jan-20 08:59N 32°05' W 081°05'0 0.0
2018-Jan-20 08:29N 32°05' W 081°05'0 0.0
2018-Jan-20 07:59N 32°05' W 081°05'0 0.0
2018-Jan-20 07:29N 32°05' W 081°05'0 0.0
2018-Jan-20 06:59N 32°05' W 081°05'0 0.0
2018-Jan-20 06:29N 32°05' W 081°05'0 0.0
2018-Jan-20 05:56N 32°05' W 081°05'0 0.0
2018-Jan-20 05:29N 32°05' W 081°05'0 0.0
2018-Jan-20 04:59N 32°05' W 081°05'0 0.0
2018-Jan-20 04:29N 32°05' W 081°05'0 0.0
2018-Jan-20 03:59N 32°05' W 081°05'0 0.0
2018-Jan-20 03:29N 32°05' W 081°05'0 0.0
2018-Jan-20 02:59N 32°05' W 081°05'0 0.0
2018-Jan-20 02:29N 32°05' W 081°05'0 0.0
2018-Jan-20 02:00N 32°05' W 081°05'2 4.1
2018-Jan-20 01:30N 32°05' W 081°03'1 1.7
2018-Jan-20 01:00N 32°05' W 081°04'2 4.1
2018-Jan-20 00:31N 32°06' W 081°06'1 1.9
2018-Jan-20 00:00N 32°05' W 081°05'0 0.0
2018-Jan-19 23:30N 32°05' W 081°05'0 0.0
2018-Jan-19 23:00N 32°05' W 081°05'0 0.0
2018-Jan-19 22:30N 32°05' W 081°05'0 0.0
2018-Jan-19 22:00N 32°05' W 081°05'0 0.0
2018-Jan-19 21:30N 32°05' W 081°05'0 0.0
2018-Jan-19 21:00N 32°05' W 081°05'0 0.0
2018-Jan-19 20:30N 32°05' W 081°05'0 0.0
2018-Jan-19 20:00N 32°05' W 081°05'0 0.0
2018-Jan-19 19:30N 32°05' W 081°05'0 0.0
2018-Jan-19 19:00N 32°05' W 081°05'0 0.0
2018-Jan-19 18:30N 32°05' W 081°05'0 0.0
2018-Jan-19 18:00N 32°05' W 081°05'0 0.0
2018-Jan-19 17:30N 32°05' W 081°05'0 0.0
2018-Jan-19 17:00N 32°05' W 081°05'0 0.0
2018-Jan-19 16:30N 32°05' W 081°05'0 0.0
2018-Jan-19 16:00N 32°05' W 081°05'0 0.0
2018-Jan-19 15:30N 32°05' W 081°05'0 0.0
2018-Jan-19 15:00N 32°05' W 081°05'0 0.0
2018-Jan-19 14:30N 32°05' W 081°05'0 0.0
2018-Jan-19 14:00N 32°05' W 081°05'0 0.0
2018-Jan-19 13:30N 32°05' W 081°05'0 0.0
2018-Jan-19 05:57N 32°05' W 081°05'0 0.0
2018-Jan-19 05:30N 32°05' W 081°05'0 0.0
2018-Jan-19 05:00N 32°05' W 081°05'0 0.0
2018-Jan-19 04:30N 32°05' W 081°05'0 0.0
2018-Jan-19 04:00N 32°05' W 081°05'0 0.0
2018-Jan-19 03:30N 32°05' W 081°05'0 0.0
2018-Jan-19 03:00N 32°05' W 081°05'0 0.0
2018-Jan-19 02:30N 32°05' W 081°05'0 0.0
2018-Jan-19 02:00N 32°05' W 081°05'0 0.0
2018-Jan-19 01:30N 32°05' W 081°05'0 0.0
2018-Jan-19 01:00N 32°05' W 081°05'0 0.0
2018-Jan-19 00:27N 32°05' W 081°05'0 0.0
2018-Jan-19 00:00N 32°05' W 081°05'0 0.0
2018-Jan-18 23:30N 32°05' W 081°05'0 0.0
2018-Jan-18 23:00N 32°05' W 081°05'0 0.0
2018-Jan-18 21:12N 32°05' W 081°05'0 0.0
2018-Jan-18 21:00N 32°05' W 081°05'0 0.0
2018-Jan-18 20:30N 32°05' W 081°05'0 0.0
2018-Jan-18 20:00N 32°05' W 081°05'0 0.0
2018-Jan-18 19:30N 32°05' W 081°05'0 0.0
2018-Jan-18 19:00N 32°05' W 081°05'0 0.0
2018-Jan-18 18:30N 32°05' W 081°05'0 0.0
2018-Jan-18 18:00N 32°05' W 081°05'0 0.0
2018-Jan-18 17:30N 32°05' W 081°05'0 0.0
2018-Jan-18 17:00N 32°05' W 081°05'0 0.0
2018-Jan-18 16:30N 32°05' W 081°05'0 0.0
2018-Jan-18 16:00N 32°05' W 081°05'0 0.0
2018-Jan-18 15:30N 32°05' W 081°05'0 0.0
2018-Jan-18 15:00N 32°05' W 081°05'0 0.0
2018-Jan-18 14:30N 32°05' W 081°05'0 0.0
2018-Jan-18 14:00N 32°05' W 081°05'0 0.0
2018-Jan-18 13:30N 32°05' W 081°05'0 0.0
2018-Jan-18 13:00N 32°05' W 081°05'0 0.0
2018-Jan-18 12:27N 32°05' W 081°05'0 0.0
2018-Jan-18 12:00N 32°05' W 081°05'0 0.0
2018-Jan-18 11:30N 32°05' W 081°05'0 0.0
2018-Jan-18 11:00N 32°05' W 081°05'0 0.0
2018-Jan-18 10:30N 32°05' W 081°05'0 0.0
2018-Jan-18 10:00N 32°05' W 081°05'0 0.0
2018-Jan-18 09:30N 32°05' W 081°05'0 0.0
2018-Jan-18 09:00N 32°05' W 081°05'0 0.0
2018-Jan-18 08:30N 32°05' W 081°05'0 0.0
2018-Jan-18 08:00N 32°05' W 081°05'0 0.0
2018-Jan-18 07:30N 32°05' W 081°05'0 0.0
2018-Jan-18 07:00N 32°05' W 081°05'0 0.0
2018-Jan-18 06:30N 32°05' W 081°05'0 0.0
2018-Jan-18 06:00N 32°05' W 081°05'0 0.0
2018-Jan-18 05:30N 32°05' W 081°05'0 0.0
2018-Jan-18 05:00N 32°05' W 081°05'0 0.0
2018-Jan-18 04:30N 32°05' W 081°05'0 0.0
2018-Jan-18 03:03N 32°05' W 081°05'0 0.1
2018-Jan-18 03:00N 32°05' W 081°05'0 0.0
2018-Jan-18 02:30N 32°05' W 081°05'0 0.0
2018-Jan-18 02:00N 32°05' W 081°05'0 0.0
2018-Jan-18 01:30N 32°05' W 081°05'0 0.0
2018-Jan-18 01:00N 32°05' W 081°05'0 0.0
2018-Jan-18 00:00N 32°05' W 081°05'0 0.0
2018-Jan-17 23:57N 32°05' W 081°05'  
2018-Jan-12 14:57N 32°05' W 081°05'0 0.0
2018-Jan-12 13:12N 32°05' W 081°05'0 0.0
2018-Jan-12 11:42N 32°05' W 081°05'0 0.0
2018-Jan-12 09:42N 32°05' W 081°05'0 0.0
2018-Jan-12 04:00N 32°05' W 081°05'0 0.0
2018-Jan-12 03:30N 32°05' W 081°05'0 0.0
2018-Jan-12 02:24N 32°05' W 081°05'0 0.0
2018-Jan-11 20:06N 32°05' W 081°05'  
Track history (hours):
 
Tides and Currents Weather Stations Pressure Air Temp Water Temp Dewpoint Dewpoint Depression Visibility Wind Speed Wind Dir Waves Ship Positions

Georgia Queen

Owner: River Street Riverboat, Savannah, GA. More information available from US FCC via Universal Licensing System and Coast Guard Vessel Documentation Center.

Last reported at 2018-Jan-21 19:55 UTC. Time now 2018-Jan-21 20:30 UTC.
Position N 32°05' W 081°05'.

Length 53 m; draft 2.7 m.

Type: Passenger vessel. MMSI: 367726210.

Date/timePositionNaut miles runAvg speedWind from/ knotsBaromVisibWave heightAir tempDewpointWater temp
2018-Jan-21 19:55N 32°05' W 081°05'0 1.2
2018-Jan-21 19:30N 32°05' W 081°05'2 4.7
2018-Jan-21 19:00N 32°05' W 081°02'3 6.6
2018-Jan-21 18:30N 32°05' W 081°06'1 1.1
2018-Jan-21 17:52N 32°05' W 081°05'0 0.0
2018-Jan-21 17:28N 32°05' W 081°05'0 0.0
2018-Jan-21 16:58N 32°05' W 081°05'0 0.0
2018-Jan-21 16:28N 32°05' W 081°05'0 0.0
2018-Jan-21 15:58N 32°05' W 081°05'0 0.0
2018-Jan-21 15:28N 32°05' W 081°05'0 0.0
2018-Jan-21 14:58N 32°05' W 081°05'0 0.0
2018-Jan-21 14:28N 32°05' W 081°05'0 0.0
2018-Jan-21 13:58N 32°05' W 081°05'0 0.0
2018-Jan-21 13:28N 32°05' W 081°05'0 0.0
2018-Jan-21 12:58N 32°05' W 081°05'0 0.0
2018-Jan-21 12:28N 32°05' W 081°05'0 0.0
2018-Jan-21 11:40N 32°05' W 081°05'0 0.0
2018-Jan-21 11:28N 32°05' W 081°05'0 0.0
2018-Jan-21 10:58N 32°05' W 081°05'0 0.0
2018-Jan-21 10:28N 32°05' W 081°05'0 0.0
2018-Jan-21 09:58N 32°05' W 081°05'0 0.0
2018-Jan-21 09:28N 32°05' W 081°05'0 0.0
2018-Jan-21 08:58N 32°05' W 081°05'0 0.0
2018-Jan-21 08:28N 32°05' W 081°05'0 0.0
2018-Jan-21 07:58N 32°05' W 081°05'0 0.0
2018-Jan-21 07:28N 32°05' W 081°05'0 0.0
2018-Jan-21 06:58N 32°05' W 081°05'0 0.0
2018-Jan-21 06:28N 32°05' W 081°05'0 0.0
2018-Jan-21 05:58N 32°05' W 081°05'0 0.0
2018-Jan-21 05:28N 32°05' W 081°05'0 0.0
2018-Jan-21 04:58N 32°05' W 081°05'0 0.0
2018-Jan-21 04:28N 32°05' W 081°05'0 0.0
2018-Jan-21 03:58N 32°05' W 081°05'0 0.0
2018-Jan-21 03:22N 32°05' W 081°05'0 0.0
2018-Jan-21 02:58N 32°05' W 081°05'0 0.0
2018-Jan-21 02:28N 32°05' W 081°05'0 0.0
2018-Jan-21 02:00N 32°05' W 081°05'2 4.4
2018-Jan-21 01:30N 32°05' W 081°03'1 2.1
2018-Jan-21 01:00N 32°05' W 081°04'2 3.9
2018-Jan-21 00:29N 32°06' W 081°06'1 1.9
2018-Jan-20 23:59N 32°05' W 081°05'0 0.0
2018-Jan-20 23:29N 32°05' W 081°05'0 0.0
2018-Jan-20 22:59N 32°05' W 081°05'0 0.0
2018-Jan-20 22:29N 32°05' W 081°05'0 0.0
2018-Jan-20 21:53N 32°05' W 081°05'0 0.0
2018-Jan-20 21:29N 32°05' W 081°05'0 0.0
2018-Jan-20 20:59N 32°05' W 081°05'0 0.0
2018-Jan-20 20:29N 32°05' W 081°05'0 0.1
2018-Jan-20 18:31N 32°05' W 081°05'0 5.6
2018-Jan-20 18:30N 32°05' W 081°05'0 0.4
2018-Jan-20 18:00N 32°05' W 081°05'0 0.0
2018-Jan-20 17:29N 32°05' W 081°05'0 0.0
2018-Jan-20 16:59N 32°05' W 081°05'0 0.0
2018-Jan-20 16:29N 32°05' W 081°05'0 0.0
2018-Jan-20 15:59N 32°05' W 081°05'0 0.0
2018-Jan-20 15:29N 32°05' W 081°05'0 0.0
2018-Jan-20 14:59N 32°05' W 081°05'0 0.0
2018-Jan-20 14:29N 32°05' W 081°05'0 0.0
2018-Jan-20 13:59N 32°05' W 081°05'0 0.0
2018-Jan-20 13:29N 32°05' W 081°05'0 0.0
2018-Jan-20 12:59N 32°05' W 081°05'0 0.0
2018-Jan-20 12:29N 32°05' W 081°05'0 0.0
2018-Jan-20 11:59N 32°05' W 081°05'0 0.0
2018-Jan-20 11:29N 32°05' W 081°05'0 0.0
2018-Jan-20 10:59N 32°05' W 081°05'0 0.0
2018-Jan-20 10:29N 32°05' W 081°05'0 0.0
2018-Jan-20 09:59N 32°05' W 081°05'0 0.0
2018-Jan-20 09:29N 32°05' W 081°05'0 0.0
2018-Jan-20 08:59N 32°05' W 081°05'0 0.0
2018-Jan-20 08:29N 32°05' W 081°05'0 0.0
2018-Jan-20 07:59N 32°05' W 081°05'0 0.0
2018-Jan-20 07:29N 32°05' W 081°05'0 0.0
2018-Jan-20 06:59N 32°05' W 081°05'0 0.0
2018-Jan-20 06:29N 32°05' W 081°05'0 0.0
2018-Jan-20 05:56N 32°05' W 081°05'0 0.0
2018-Jan-20 05:29N 32°05' W 081°05'0 0.0
2018-Jan-20 04:59N 32°05' W 081°05'0 0.0
2018-Jan-20 04:29N 32°05' W 081°05'0 0.0
2018-Jan-20 03:59N 32°05' W 081°05'0 0.0
2018-Jan-20 03:29N 32°05' W 081°05'0 0.0
2018-Jan-20 02:59N 32°05' W 081°05'0 0.0
2018-Jan-20 02:29N 32°05' W 081°05'0 0.0
2018-Jan-20 02:00N 32°05' W 081°05'2 4.1
2018-Jan-20 01:30N 32°05' W 081°03'1 1.7
2018-Jan-20 01:00N 32°05' W 081°04'2 4.1
2018-Jan-20 00:31N 32°06' W 081°06'1 1.9
2018-Jan-20 00:00N 32°05' W 081°05'0 0.0
2018-Jan-19 23:30N 32°05' W 081°05'0 0.0
2018-Jan-19 23:00N 32°05' W 081°05'0 0.0
2018-Jan-19 22:30N 32°05' W 081°05'0 0.0
2018-Jan-19 22:00N 32°05' W 081°05'0 0.0
2018-Jan-19 21:30N 32°05' W 081°05'0 0.0
2018-Jan-19 21:00N 32°05' W 081°05'0 0.0
2018-Jan-19 20:30N 32°05' W 081°05'0 0.0
2018-Jan-19 20:00N 32°05' W 081°05'0 0.0
2018-Jan-19 19:30N 32°05' W 081°05'0 0.0
2018-Jan-19 19:00N 32°05' W 081°05'0 0.0
2018-Jan-19 18:30N 32°05' W 081°05'0 0.0
2018-Jan-19 18:00N 32°05' W 081°05'0 0.0
2018-Jan-19 17:30N 32°05' W 081°05'0 0.0
2018-Jan-19 17:00N 32°05' W 081°05'0 0.0
2018-Jan-19 16:30N 32°05' W 081°05'0 0.0
2018-Jan-19 16:00N 32°05' W 081°05'0 0.0
2018-Jan-19 15:30N 32°05' W 081°05'0 0.0
2018-Jan-19 15:00N 32°05' W 081°05'0 0.0
2018-Jan-19 14:30N 32°05' W 081°05'0 0.0
2018-Jan-19 14:00N 32°05' W 081°05'0 0.0
2018-Jan-19 13:30N 32°05' W 081°05'0 0.0
2018-Jan-19 05:57N 32°05' W 081°05'0 0.0
2018-Jan-19 05:30N 32°05' W 081°05'0 0.0
2018-Jan-19 05:00N 32°05' W 081°05'0 0.0
2018-Jan-19 04:30N 32°05' W 081°05'0 0.0
2018-Jan-19 04:00N 32°05' W 081°05'0 0.0
2018-Jan-19 03:30N 32°05' W 081°05'0 0.0
2018-Jan-19 03:00N 32°05' W 081°05'0 0.0
2018-Jan-19 02:30N 32°05' W 081°05'0 0.0
2018-Jan-19 02:00N 32°05' W 081°05'0 0.0
2018-Jan-19 01:30N 32°05' W 081°05'0 0.0
2018-Jan-19 01:00N 32°05' W 081°05'0 0.0
2018-Jan-19 00:27N 32°05' W 081°05'0 0.0
2018-Jan-19 00:00N 32°05' W 081°05'0 0.0
2018-Jan-18 23:30N 32°05' W 081°05'0 0.0
2018-Jan-18 23:00N 32°05' W 081°05'0 0.0
2018-Jan-18 21:12N 32°05' W 081°05'0 0.0
2018-Jan-18 21:00N 32°05' W 081°05'0 0.0
2018-Jan-18 20:30N 32°05' W 081°05'0 0.0
2018-Jan-18 20:00N 32°05' W 081°05'0 0.0
2018-Jan-18 19:30N 32°05' W 081°05'0 0.0
2018-Jan-18 19:00N 32°05' W 081°05'0 0.0
2018-Jan-18 18:30N 32°05' W 081°05'0 0.0
2018-Jan-18 18:00N 32°05' W 081°05'0 0.0
2018-Jan-18 17:30N 32°05' W 081°05'0 0.0
2018-Jan-18 17:00N 32°05' W 081°05'0 0.0
2018-Jan-18 16:30N 32°05' W 081°05'0 0.0
2018-Jan-18 16:00N 32°05' W 081°05'0 0.0
2018-Jan-18 15:30N 32°05' W 081°05'0 0.0
2018-Jan-18 15:00N 32°05' W 081°05'0 0.0
2018-Jan-18 14:30N 32°05' W 081°05'0 0.0
2018-Jan-18 14:00N 32°05' W 081°05'0 0.0
2018-Jan-18 13:30N 32°05' W 081°05'0 0.0
2018-Jan-18 13:00N 32°05' W 081°05'0 0.0
2018-Jan-18 12:27N 32°05' W 081°05'0 0.0
2018-Jan-18 12:00N 32°05' W 081°05'0 0.0
2018-Jan-18 11:30N 32°05' W 081°05'0 0.0
2018-Jan-18 11:00N 32°05' W 081°05'0 0.0
2018-Jan-18 10:30N 32°05' W 081°05'0 0.0
2018-Jan-18 10:00N 32°05' W 081°05'0 0.0
2018-Jan-18 09:30N 32°05' W 081°05'0 0.0
2018-Jan-18 09:00N 32°05' W 081°05'0 0.0
2018-Jan-18 08:30N 32°05' W 081°05'0 0.0
2018-Jan-18 08:00N 32°05' W 081°05'0 0.0
2018-Jan-18 07:30N 32°05' W 081°05'0 0.0
2018-Jan-18 07:00N 32°05' W 081°05'0 0.0
2018-Jan-18 06:30N 32°05' W 081°05'0 0.0
2018-Jan-18 06:00N 32°05' W 081°05'0 0.0
2018-Jan-18 05:30N 32°05' W 081°05'0 0.0
2018-Jan-18 05:00N 32°05' W 081°05'0 0.0
2018-Jan-18 04:30N 32°05' W 081°05'0 0.0
2018-Jan-18 03:03N 32°05' W 081°05'0 0.1
2018-Jan-18 03:00N 32°05' W 081°05'0 0.0
2018-Jan-18 02:30N 32°05' W 081°05'0 0.0
2018-Jan-18 02:00N 32°05' W 081°05'0 0.0
2018-Jan-18 01:30N 32°05' W 081°05'0 0.0
2018-Jan-18 01:00N 32°05' W 081°05'0 0.0
2018-Jan-18 00:00N 32°05' W 081°05'0 0.0
2018-Jan-17 23:57N 32°05' W 081°05'  
2018-Jan-12 14:57N 32°05' W 081°05'0 0.0
2018-Jan-12 13:12N 32°05' W 081°05'0 0.0
2018-Jan-12 11:42N 32°05' W 081°05'0 0.0
2018-Jan-12 09:42N 32°05' W 081°05'0 0.0
2018-Jan-12 04:00N 32°05' W 081°05'0 0.0
2018-Jan-12 03:30N 32°05' W 081°05'0 0.0
2018-Jan-12 02:24N 32°05' W 081°05'0 0.0
2018-Jan-11 20:06N 32°05' W 081°05'  

Dump ship's entire track history